Time;durP1;ratioP1;P1;durP2;ratioP2;P2;SDS_P1;SDS_P2;PMS_P1;PMS_P2;Temp;Humidity;BMP_temperature;BMP_pressure;BME280_temperature;BME280_humidity;BME280_pressure;Samples;Min_cycle;Max_cycle;Signal;HPM_P1;HPM_P2
2022/07/13 00:00:29;;;;;;;;;2.50;2.50;;;;;24.72;40.06;99605.88;4823493;29;45344;-55
2022/07/13 00:02:54;;;;;;;;;3.00;3.00;;;;;24.69;40.74;99611.53;4818624;29;45537;-56
2022/07/13 00:05:20;;;;;;;;;3.00;3.00;;;;;24.67;41.27;99613.50;4823766;29;45537;-55
2022/07/13 00:07:45;;;;;;;;;3.00;3.00;;;;;24.60;41.64;99610.53;4820987;29;46213;-56
2022/07/13 00:10:11;;;;;;;;;4.00;3.00;;;;;24.55;41.15;99615.47;4823531;29;45389;-56
2022/07/13 00:12:37;;;;;;;;;2.00;2.00;;;;;24.53;41.53;99611.22;4821071;29;45470;-55
2022/07/13 00:15:03;;;;;;;;;3.00;3.00;;;;;24.50;41.42;99619.56;4823550;29;45436;-56
2022/07/13 00:17:29;;;;;;;;;2.25;2.25;;;;;24.45;41.84;99614.59;4835548;29;46500;-55
2022/07/13 00:19:54;;;;;;;;;4.75;3.75;;;;;24.40;42.05;99624.09;4821015;29;45490;-55
2022/07/13 00:22:19;;;;;;;;;2.00;2.00;;;;;24.28;41.64;99626.03;4820701;29;45659;-55
2022/07/13 00:24:45;;;;;;;;;3.75;3.25;;;;;24.23;41.57;99622.84;4823632;29;45453;-55
2022/07/13 00:27:10;;;;;;;;;3.00;3.00;;;;;24.20;42.63;99621.28;4821073;29;45629;-54
2022/07/13 00:29:36;;;;;;;;;3.00;3.00;;;;;24.13;43.47;99622.78;4821651;29;45589;-54
2022/07/13 00:32:01;;;;;;;;;3.50;3.00;;;;;24.02;43.02;99629.16;4821320;29;46126;-55
2022/07/13 00:34:26;;;;;;;;;3.25;3.25;;;;;23.93;43.13;99629.09;4823246;29;45404;-55
2022/07/13 00:36:52;;;;;;;;;3.00;3.00;;;;;23.85;42.46;99629.75;4820894;29;46280;-56
2022/07/13 00:39:17;;;;;;;;;4.00;3.25;;;;;23.82;42.36;99629.16;4820560;29;45352;-56
2022/07/13 00:41:45;;;;;;;;;5.00;3.25;;;;;23.77;42.55;99623.34;4822663;29;45495;-55
2022/07/13 00:44:10;;;;;;;;;4.25;3.50;;;;;23.78;42.75;99630.44;4816393;29;45569;-54
2022/07/13 00:46:37;;;;;;;;;3.75;3.75;;;;;23.77;42.97;99624.19;4822903;29;45428;-55
2022/07/13 00:49:03;;;;;;;;;3.60;3.00;;;;;23.74;43.57;99624.47;4818111;29;45489;-54
2022/07/13 00:51:29;;;;;;;;;3.00;3.00;;;;;23.69;44.65;99626.69;4823430;29;45401;-55
2022/07/13 00:53:54;;;;;;;;;1.00;1.00;;;;;23.63;44.35;99630.75;4817160;29;45776;-55
2022/07/13 00:56:20;;;;;;;;;5.75;4.25;;;;;23.60;44.80;99632.88;4822872;29;46577;-55
2022/07/13 00:58:46;;;;;;;;;3.00;3.00;;;;;23.59;44.61;99637.41;4817152;29;45480;-55
2022/07/13 01:01:11;;;;;;;;;3.75;3.00;;;;;23.55;44.89;99638.66;4823062;29;45564;-55
2022/07/13 01:03:37;;;;;;;;;2.50;2.25;;;;;23.50;44.17;99634.59;4816472;29;45348;-55
2022/07/13 01:06:03;;;;;;;;;3.75;3.75;;;;;23.44;44.14;99635.13;4823068;29;45443;-56
2022/07/13 01:08:29;;;;;;;;;5.00;3.50;;;;;23.42;44.25;99632.56;4816890;29;45501;-56
2022/07/13 01:10:56;;;;;;;;;3.50;3.50;;;;;23.42;43.68;99637.09;4823180;29;45462;-56
2022/07/13 01:13:22;;;;;;;;;4.25;3.75;;;;;23.43;43.79;99636.97;4815297;29;45511;-55
2022/07/13 01:15:48;;;;;;;;;3.75;3.75;;;;;23.46;43.66;99638.56;4822776;29;45442;-55
2022/07/13 01:18:14;;;;;;;;;4.00;4.00;;;;;23.48;43.77;99642.81;4818831;29;45453;-55
2022/07/13 01:20:42;;;;;;;;;4.00;4.00;;;;;23.50;43.75;99637.28;4823050;29;45392;-55
2022/07/13 01:23:12;;;;;;;;;4.25;3.50;;;;;23.51;43.59;99636.31;4823140;29;45496;-55
2022/07/13 01:25:39;;;;;;;;;3.00;3.00;;;;;23.51;43.59;99631.81;4825635;29;45536;-55
2022/07/13 01:28:05;;;;;;;;;2.80;2.80;;;;;23.52;43.46;99636.22;4824011;29;45473;-56
2022/07/13 01:30:31;;;;;;;;;4.00;4.00;;;;;23.51;43.82;99631.81;4825751;29;45468;-54
2022/07/13 01:32:56;;;;;;;;;3.00;3.00;;;;;23.51;43.83;99631.81;4821854;29;45469;-56
2022/07/13 01:35:23;;;;;;;;;4.50;4.00;;;;;23.52;43.97;99636.22;4819766;29;45698;-55
2022/07/13 01:37:49;;;;;;;;;3.80;3.80;;;;;23.52;44.24;99638.91;4824156;29;45527;-53
2022/07/13 01:40:15;;;;;;;;;3.25;3.25;;;;;23.54;44.25;99636.09;4824753;29;45439;-56
2022/07/13 01:42:44;;;;;;;;;3.00;3.00;;;;;23.53;43.58;99637.06;4822609;29;45573;-57
2022/07/13 01:45:11;;;;;;;;;2.00;2.00;;;;;23.52;43.90;99632.66;4824714;29;45523;-56
2022/07/13 01:47:41;;;;;;;;;4.40;4.00;;;;;23.52;43.95;99630.81;4822773;29;45528;-55
2022/07/13 01:50:08;;;;;;;;;4.00;3.75;;;;;23.52;44.28;99627.28;4821617;29;45412;-55
2022/07/13 01:52:35;;;;;;;;;4.00;4.00;;;;;23.52;43.94;99624.59;4820492;29;45459;-55
2022/07/13 01:55:05;;;;;;;;;4.00;4.00;;;;;23.50;44.32;99627.38;4824905;29;47158;-55
2022/07/13 01:57:32;;;;;;;;;2.80;2.80;;;;;23.50;44.33;99631.91;4820618;29;45464;-55
2022/07/13 02:00:03;;;;;;;;;4.50;4.25;;;;;23.52;44.81;99625.44;4822609;29;45395;-55
2022/07/13 02:02:28;;;;;;;;;3.00;3.00;;;;;23.54;44.63;99628.00;4822228;29;45639;-55
2022/07/13 02:04:54;;;;;;;;;4.00;4.00;;;;;23.51;44.44;99623.72;4818654;29;46227;-54
2022/07/13 02:07:21;;;;;;;;;4.00;4.00;;;;;23.49;44.85;99627.50;4822239;29;45407;-55
2022/07/13 02:09:47;;;;;;;;;4.75;4.00;;;;;23.50;44.41;99626.53;4823435;29;45386;-54
2022/07/13 02:12:13;;;;;;;;;3.75;3.00;;;;;23.48;44.63;99629.34;4823716;29;45597;-54
2022/07/13 02:14:38;;;;;;;;;3.00;3.00;;;;;23.44;44.62;99627.91;4825298;29;45477;-54
2022/07/13 02:17:04;;;;;;;;;3.00;3.00;;;;;23.41;44.92;99632.69;4823950;29;45378;-56
2022/07/13 02:19:29;;;;;;;;;3.75;3.75;;;;;23.40;45.05;99631.84;4822934;29;45536;-52
2022/07/13 02:21:55;;;;;;;;;3.50;3.50;;;;;23.41;45.58;99643.47;4823396;29;45702;-55
2022/07/13 02:24:20;;;;;;;;;4.75;4.75;;;;;23.39;45.64;99640.06;4822912;29;46035;-55
2022/07/13 02:26:46;;;;;;;;;4.00;4.00;;;;;23.37;45.29;99642.88;4824128;29;45407;-55
2022/07/13 02:29:11;;;;;;;;;4.75;3.75;;;;;23.36;45.10;99645.69;4817899;29;45831;-54
2022/07/13 02:31:36;;;;;;;;;4.00;4.00;;;;;23.33;45.04;99636.88;4824238;29;45399;-54
2022/07/13 02:34:02;;;;;;;;;4.50;4.50;;;;;23.29;45.37;99648.88;4821582;29;46521;-54
2022/07/13 02:36:27;;;;;;;;;4.00;4.00;;;;;23.23;45.11;99638.66;4825027;29;45328;-55
2022/07/13 02:38:52;;;;;;;;;5.00;4.25;;;;;23.18;45.43;99642.69;4818610;29;45358;-55
2022/07/13 02:41:18;;;;;;;;;4.75;4.75;;;;;23.15;45.87;99640.25;4825538;29;45534;-54
2022/07/13 02:43:43;;;;;;;;;6.00;5.00;;;;;23.12;45.84;99645.94;4816554;29;46369;-55
2022/07/13 02:46:08;;;;;;;;;4.75;3.50;;;;;23.08;45.83;99642.63;4824859;29;45351;-55
2022/07/13 02:48:34;;;;;;;;;3.25;3.25;;;;;23.06;45.69;99646.44;4819705;29;45431;-55
2022/07/13 02:51:00;;;;;;;;;3.75;3.75;;;;;23.00;45.95;99647.78;4824580;29;45312;-56
2022/07/13 02:53:25;;;;;;;;;4.50;4.00;;;;;22.96;45.50;99647.16;4819310;29;45786;-55
2022/07/13 02:55:50;;;;;;;;;3.00;1.00;;;;;22.93;46.30;99654.66;4824936;29;45380;-54
2022/07/13 02:58:16;;;;;;;;;5.00;4.25;;;;;22.91;45.50;99651.25;4819701;29;45421;-54
2022/07/13 03:00:41;;;;;;;;;3.00;3.00;;;;;22.88;45.75;99654.19;4824782;29;45502;-55
2022/07/13 03:03:07;;;;;;;;;4.00;4.00;;;;;22.86;45.65;99656.13;4818641;29;46329;-55
2022/07/13 03:05:32;;;;;;;;;3.00;1.75;;;;;22.83;45.31;99649.16;4824816;29;45495;-55
2022/07/13 03:07:58;;;;;;;;;3.50;3.00;;;;;22.83;45.12;99646.47;4818753;29;45623;-54
2022/07/13 03:10:23;;;;;;;;;4.00;4.00;;;;;22.84;45.79;99653.56;4824665;29;45545;-54
2022/07/13 03:12:49;;;;;;;;;4.00;4.00;;;;;22.85;44.94;99659.81;4820838;29;45582;-54
2022/07/13 03:15:14;;;;;;;;;4.50;4.50;;;;;22.84;44.84;99656.25;4824323;29;45526;-55
2022/07/13 03:17:41;;;;;;;;;3.50;3.50;;;;;22.81;45.28;99656.50;4820838;29;45855;-56
2022/07/13 03:20:07;;;;;;;;;6.25;5.00;;;;;22.79;44.91;99665.69;4821463;29;45575;-55
2022/07/13 03:22:33;;;;;;;;;4.25;4.00;;;;;22.77;45.47;99663.13;4820810;29;45508;-53
2022/07/13 03:24:58;;;;;;;;;3.00;3.00;;;;;22.75;45.66;99659.69;4824229;29;45396;-54
2022/07/13 03:27:24;;;;;;;;;3.00;3.00;;;;;22.74;45.59;99665.19;4821864;29;45561;-54
2022/07/13 03:29:49;;;;;;;;;5.50;4.25;;;;;22.72;45.19;99664.44;4824608;29;45318;-54
2022/07/13 03:32:15;;;;;;;;;6.00;4.25;;;;;22.69;45.67;99662.84;4820722;29;45443;-55
2022/07/13 03:34:41;;;;;;;;;4.00;4.00;;;;;22.67;45.70;99662.13;4818567;29;45344;-56
2022/07/13 03:37:08;;;;;;;;;3.25;3.00;;;;;22.66;45.95;99664.94;4822801;29;45433;-56
2022/07/13 03:39:34;;;;;;;;;6.75;6.75;;;;;22.63;45.41;99666.03;4813689;29;45600;-54
2022/07/13 03:41:59;;;;;;;;;8.75;7.25;;;;;22.60;45.60;99663.63;4822600;29;46242;-56
2022/07/13 03:44:25;;;;;;;;;6.00;6.00;;;;;22.57;45.59;99663.88;4818064;29;45430;-55
2022/07/13 03:46:50;;;;;;;;;7.00;6.00;;;;;22.53;45.76;99663.25;4822498;29;45395;-53
2022/07/13 03:49:15;;;;;;;;;10.75;7.00;;;;;22.51;45.69;99656.28;4817634;29;45519;-55
2022/07/13 03:51:42;;;;;;;;;4.25;3.00;;;;;22.50;46.06;99668.00;4823542;29;45511;-54
2022/07/13 03:54:08;;;;;;;;;5.60;5.60;;;;;22.48;45.82;99665.44;4832667;29;45432;-56
2022/07/13 03:56:33;;;;;;;;;4.00;4.00;;;;;22.46;45.44;99664.72;4823463;29;45456;-56
2022/07/13 03:58:59;;;;;;;;;6.00;5.75;;;;;22.47;45.79;99670.94;4818407;29;45647;-55
2022/07/13 04:01:24;;;;;;;;;6.00;6.00;;;;;22.47;45.19;99663.72;4824039;29;45597;-55
2022/07/13 04:03:51;;;;;;;;;5.00;5.00;;;;;22.49;45.75;99669.00;4820075;29;45471;-54
2022/07/13 04:06:17;;;;;;;;;7.00;5.50;;;;;22.47;45.48;99669.09;4824078;29;45179;-56
2022/07/13 04:08:42;;;;;;;;;5.00;5.00;;;;;22.46;45.43;99671.91;4818915;29;45518;-56
2022/07/13 04:11:08;;;;;;;;;5.50;5.00;;;;;22.42;45.55;99671.34;4827297;29;46608;-55
2022/07/13 04:13:33;;;;;;;;;5.75;5.75;;;;;22.41;45.72;99682.19;4820796;29;45488;-55
2022/07/13 04:15:58;;;;;;;;;6.25;6.25;;;;;22.39;46.01;99676.94;4823785;29;45334;-55
2022/07/13 04:18:24;;;;;;;;;6.00;6.00;;;;;22.39;45.54;99679.63;4820391;29;45628;-55
2022/07/13 04:20:49;;;;;;;;;4.50;4.50;;;;;22.38;45.61;99677.06;4823562;29;45817;-55
2022/07/13 04:23:15;;;;;;;;;4.75;4.50;;;;;22.38;45.41;99677.91;4821473;29;45482;-55
2022/07/13 04:25:40;;;;;;;;;5.50;5.50;;;;;22.38;45.55;99679.75;4823400;29;45641;-56
2022/07/13 04:28:06;;;;;;;;;4.75;4.75;;;;;22.39;45.98;99678.78;4817510;29;45447;-55
2022/07/13 04:30:31;;;;;;;;;5.25;5.00;;;;;22.38;45.45;99682.44;4818308;29;45362;-56
2022/07/13 04:32:56;;;;;;;;;5.00;5.00;;;;;22.39;45.90;99676.94;4821233;29;45417;-55
2022/07/13 04:35:22;;;;;;;;;3.25;3.25;;;;;22.38;45.43;99685.97;4823381;29;45470;-53
2022/07/13 04:37:48;;;;;;;;;4.00;4.00;;;;;22.37;45.86;99686.97;4821583;29;45575;-55
2022/07/13 04:40:13;;;;;;;;;5.00;5.00;;;;;22.36;46.62;99690.63;4823341;29;46385;-55
2022/07/13 04:42:39;;;;;;;;;5.00;5.00;;;;;22.37;46.75;99695.00;4818552;29;45504;-54
2022/07/13 04:45:05;;;;;;;;;4.00;4.00;;;;;22.37;46.44;99694.16;4823042;29;45404;-55
2022/07/13 04:47:30;;;;;;;;;5.00;5.00;;;;;22.36;46.36;99703.19;4819454;29;45455;-55
2022/07/13 04:49:55;;;;;;;;;3.00;3.00;;;;;22.34;47.02;99697.94;4822472;29;46009;-53
2022/07/13 04:52:21;;;;;;;;;5.25;5.25;;;;;22.29;46.50;99695.63;4819563;29;45466;-54
2022/07/13 04:54:47;;;;;;;;;7.00;7.00;;;;;22.29;46.86;99700.97;4820899;29;45517;-63
2022/07/13 04:57:12;;;;;;;;;5.25;3.50;;;;;22.29;46.78;99708.19;4822132;29;45470;-63
2022/07/13 04:59:37;;;;;;;;;4.00;4.00;;;;;22.27;47.18;99702.97;4822102;29;46208;-62
2022/07/13 05:02:03;;;;;;;;;5.00;5.00;;;;;22.27;47.11;99699.41;4823556;29;45554;-63
2022/07/13 05:04:28;;;;;;;;;5.25;4.50;;;;;22.28;47.19;99706.50;4824989;29;46080;-62
2022/07/13 05:06:54;;;;;;;;;7.00;5.25;;;;;22.28;47.37;99710.06;4823960;29;45477;-62
2022/07/13 05:09:19;;;;;;;;;6.25;5.25;;;;;22.28;47.29;99703.81;4820438;29;45786;-63
2022/07/13 05:11:44;;;;;;;;;4.00;4.00;;;;;22.31;46.96;99710.75;4821795;29;45408;-63
2022/07/13 05:14:10;;;;;;;;;5.00;4.50;;;;;22.34;47.20;99711.38;4821891;29;45533;-63
2022/07/13 05:16:35;;;;;;;;;6.00;4.00;;;;;22.36;46.43;99711.25;4831645;29;45564;-63
2022/07/13 05:19:01;;;;;;;;;5.00;5.00;;;;;22.37;46.19;99713.81;4822536;29;45443;-63
2022/07/13 05:21:26;;;;;;;;;5.25;5.00;;;;;22.40;46.48;99716.28;4825666;29;45448;-63
2022/07/13 05:23:52;;;;;;;;;4.00;3.00;;;;;22.46;46.15;99717.59;4823410;29;45286;-63
2022/07/13 05:26:17;;;;;;;;;5.00;5.00;;;;;22.50;46.53;99719.94;4824478;29;45418;-63
2022/07/13 05:28:43;;;;;;;;;6.00;6.00;;;;;22.53;46.36;99722.38;4828506;29;46203;-62
2022/07/13 05:31:08;;;;;;;;;6.00;5.00;;;;;22.56;46.33;99721.28;4825132;29;45306;-64
2022/07/13 05:33:33;;;;;;;;;4.25;4.25;;;;;22.59;46.00;99724.59;4822625;29;45943;-63
2022/07/13 05:36:04;;;;;;;;;5.75;4.75;;;;;22.62;46.01;99723.50;4825738;29;45577;-63
2022/07/13 05:38:29;;;;;;;;;6.00;4.00;;;;;22.62;45.15;99721.63;4823054;29;46152;-63
2022/07/13 05:40:55;;;;;;;;;4.50;4.00;;;;;22.64;45.52;99721.50;4821763;29;45557;-63
2022/07/13 05:43:20;;;;;;;;;6.00;6.00;;;;;22.69;45.72;99723.81;4828629;29;45549;-63
2022/07/13 05:45:45;;;;;;;;;7.00;6.00;;;;;22.71;45.12;99714.66;4817232;29;45418;-64
2022/07/13 05:48:11;;;;;;;;;4.75;4.75;;;;;22.74;45.27;99725.19;4822842;29;46111;-63
2022/07/13 05:50:36;;;;;;;;;4.25;4.00;;;;;22.76;45.21;99723.22;4824872;29;45416;-63
2022/07/13 05:53:01;;;;;;;;;5.00;5.00;;;;;22.79;45.21;99722.16;4823326;29;45497;-63
2022/07/13 05:55:27;;;;;;;;;3.00;3.00;;;;;22.81;45.27;99723.72;4824877;29;45413;-63
2022/07/13 05:57:53;;;;;;;;;5.00;5.00;;;;;22.85;44.96;99725.19;4821698;29;46188;-63
2022/07/13 06:00:18;;;;;;;;;6.25;5.25;;;;;22.89;44.41;99723.97;4822164;29;45501;-63
2022/07/13 06:02:44;;;;;;;;;3.00;2.25;;;;;22.91;44.21;99722.00;4819372;29;45356;-63
2022/07/13 06:05:10;;;;;;;;;4.75;4.75;;;;;22.95;44.42;99722.63;4827550;29;45718;-63
2022/07/13 06:07:36;;;;;;;;;4.50;4.50;;;;;22.97;44.27;99723.31;4822230;29;46042;-63
2022/07/13 06:10:02;;;;;;;;;6.50;6.50;;;;;23.02;44.53;99722.97;4823492;29;45378;-63
2022/07/13 06:12:28;;;;;;;;;5.75;5.75;;;;;23.03;44.44;99720.16;4821369;29;45462;-63
2022/07/13 06:14:54;;;;;;;;;7.50;5.00;;;;;23.05;44.23;99718.19;4823612;29;45734;-64
2022/07/13 06:17:20;;;;;;;;;6.00;4.00;;;;;23.05;43.74;99717.34;4816837;29;45597;-63
2022/07/13 06:19:45;;;;;;;;;4.00;4.00;;;;;23.05;44.46;99715.50;4820766;29;45590;-63
2022/07/13 06:22:11;;;;;;;;;3.00;3.00;;;;;23.09;44.63;99722.34;4821497;29;45824;-63
2022/07/13 06:24:36;;;;;;;;;4.00;4.00;;;;;23.13;44.00;99721.09;4819867;29;45436;-64
2022/07/13 06:27:01;;;;;;;;;5.00;5.00;;;;;23.18;44.13;99726.94;4821437;29;46084;-63
2022/07/13 06:29:27;;;;;;;;;3.75;3.75;;;;;23.24;43.86;99729.16;4822443;29;45434;-63
2022/07/13 06:31:52;;;;;;;;;4.25;4.00;;;;;23.30;44.42;99723.25;4816494;29;45463;-63
2022/07/13 06:34:18;;;;;;;;;6.50;4.25;;;;;23.32;43.48;99723.97;4818724;29;45437;-64
2022/07/13 06:36:43;;;;;;;;;4.25;4.25;;;;;23.37;43.52;99720.91;4822243;29;46805;-63
2022/07/13 06:39:09;;;;;;;;;5.50;5.00;;;;;23.41;43.33;99733.13;4819710;29;45444;-63
2022/07/13 06:41:34;;;;;;;;;3.00;3.00;;;;;23.45;42.54;99729.22;4834159;29;45315;-64
2022/07/13 06:43:59;;;;;;;;;5.00;4.00;;;;;23.50;42.15;99728.81;4819149;29;45525;-64
2022/07/13 06:46:25;;;;;;;;;3.75;3.75;;;;;23.54;42.34;99727.59;4821877;29;45462;-63
2022/07/13 06:48:51;;;;;;;;;4.50;4.00;;;;;23.60;42.18;99724.41;4818234;29;45789;-64
2022/07/13 06:51:16;;;;;;;;;7.00;4.25;;;;;23.66;41.90;99731.94;4823353;29;45421;-65
2022/07/13 06:53:43;;;;;;;;;5.00;4.75;;;;;23.71;42.02;99723.50;4817370;29;45554;-63
2022/07/13 06:56:08;;;;;;;;;6.50;5.50;;;;;23.75;41.55;99724.94;4823198;29;45389;-63
2022/07/13 06:58:34;;;;;;;;;5.00;4.00;;;;;23.80;41.97;99726.25;4820455;29;45422;-64
2022/07/13 07:00:59;;;;;;;;;3.50;3.00;;;;;23.85;41.81;99723.16;4824014;29;45737;-63
2022/07/13 07:03:24;;;;;;;;;4.00;4.00;;;;;23.92;42.21;99725.22;4821315;29;45529;-56
2022/07/13 07:05:51;;;;;;;;;5.00;4.00;;;;;23.97;41.98;99731.03;4823927;29;46267;-62
2022/07/13 07:08:16;;;;;;;;;5.00;4.60;;;;;24.05;42.08;99719.63;4821313;29;45482;-63
2022/07/13 07:10:42;;;;;;;;;6.00;4.25;;;;;24.11;41.97;99726.31;4821967;29;45345;-63
2022/07/13 07:13:08;;;;;;;;;6.50;6.50;;;;;24.16;41.49;99726.75;4818802;29;45418;-63
2022/07/13 07:15:34;;;;;;;;;4.00;4.00;;;;;24.22;41.25;99723.53;4823588;29;46353;-63
2022/07/13 07:18:00;;;;;;;;;4.00;4.00;;;;;24.29;41.57;99725.63;4822493;29;45507;-63
2022/07/13 07:20:25;;;;;;;;;6.00;5.00;;;;;24.35;41.03;99722.38;4816604;29;45455;-63
2022/07/13 07:22:50;;;;;;;;;3.25;3.25;;;;;24.42;40.76;99722.69;4818845;29;45427;-63
2022/07/13 07:25:16;;;;;;;;;4.25;4.25;;;;;24.47;40.54;99720.44;4827371;29;47482;-63
2022/07/13 07:27:43;;;;;;;;;4.00;4.00;;;;;24.55;40.63;99728.72;4820059;29;45562;-63
2022/07/13 07:30:09;;;;;;;;;6.00;5.00;;;;;24.62;40.42;99726.34;4821953;29;45390;-63
2022/07/13 07:32:34;;;;;;;;;4.75;4.75;;;;;24.68;40.41;99721.25;4821308;29;45393;-64
2022/07/13 07:35:00;;;;;;;;;4.75;4.50;;;;;24.76;40.26;99725.97;4823915;29;45511;-64
2022/07/13 07:37:25;;;;;;;;;6.00;5.75;;;;;24.82;39.56;99711.91;4820829;29;45486;-56
2022/07/13 07:39:51;;;;;;;;;5.25;5.00;;;;;24.89;39.53;99712.22;4820504;29;45491;-58
2022/07/13 07:42:17;;;;;;;;;4.75;4.75;;;;;24.94;39.30;99713.56;4822956;29;45318;-56
2022/07/13 07:44:43;;;;;;;;;5.75;5.00;;;;;25.02;38.87;99705.59;4823344;29;45399;-55
2022/07/13 07:47:08;;;;;;;;;11.00;10.00;;;;;25.09;39.05;99703.22;4821222;29;45556;-55
2022/07/13 07:49:34;;;;;;;;;7.00;6.00;;;;;25.16;39.46;99698.94;4819110;29;45351;-62
2022/07/13 07:52:00;;;;;;;;;3.00;3.00;;;;;25.24;39.52;99704.50;4821645;29;45349;-63
2022/07/13 07:54:25;;;;;;;;;8.25;7.75;;;;;25.31;39.50;99696.69;4819293;29;45460;-64
2022/07/13 07:56:51;;;;;;;;;7.00;6.75;;;;;25.41;39.34;99697.56;4822557;29;45395;-64
2022/07/13 07:59:16;;;;;;;;;6.00;4.75;;;;;25.47;39.58;99690.75;4823296;29;45435;-63
2022/07/13 08:01:42;;;;;;;;;5.75;5.75;;;;;25.55;39.55;99691.72;4822472;29;45496;-63
2022/07/13 08:04:08;;;;;;;;;6.50;6.50;;;;;25.62;39.81;99687.50;4821560;29;46182;-56
2022/07/13 08:06:33;;;;;;;;;6.00;5.25;;;;;25.69;39.11;99690.47;4823025;29;45405;-56
2022/07/13 08:08:59;;;;;;;;;5.25;5.25;;;;;25.76;39.17;99683.50;4821341;29;45557;-55
2022/07/13 08:11:24;;;;;;;;;7.25;7.00;;;;;25.81;39.03;99683.91;4822489;29;46024;-56
2022/07/13 08:13:51;;;;;;;;;4.75;4.75;;;;;25.88;38.81;99678.78;4821501;29;46311;-54
2022/07/13 08:16:18;;;;;;;;;6.80;6.80;;;;;25.94;38.80;99684.47;4823082;29;45409;-56
2022/07/13 08:18:44;;;;;;;;;6.00;6.00;;;;;26.01;38.68;99682.88;4822998;29;45854;-56
2022/07/13 08:21:10;;;;;;;;;4.00;4.00;;;;;26.10;38.68;99683.03;4821686;29;45951;-56
2022/07/13 08:23:51;;;;;;;;;4.00;4.00;;;;;26.16;38.86;99677.00;4820868;29;46202;-56
2022/07/13 08:26:21;;;;;;;;;6.40;5.60;;;;;26.24;38.90;99679.84;4822605;29;45547;-55
2022/07/13 08:28:46;;;;;;;;;7.50;6.25;;;;;26.29;38.50;99675.75;4821540;29;45462;-55
2022/07/13 08:31:12;;;;;;;;;6.50;5.00;;;;;26.32;38.38;99672.72;4822884;29;45393;-56
2022/07/13 08:39:07;;;;;;;;;3.25;3.25;;;;;26.56;38.04;99677.59;4822185;29;45451;-56
2022/07/13 08:41:33;;;;;;;;;7.00;7.00;;;;;26.64;38.06;99671.47;4822820;29;45359;-56
2022/07/13 08:44:00;;;;;;;;;6.50;6.00;;;;;26.71;37.98;99672.53;4819333;29;45502;-56
2022/07/13 08:46:26;;;;;;;;;5.00;5.00;;;;;26.79;37.83;99669.09;4822303;29;45424;-56
2022/07/13 08:48:54;;;;;;;;;4.00;4.00;;;;;26.85;37.90;99669.31;4816910;29;45423;-63
2022/07/13 08:51:20;;;;;;;;;4.25;4.25;;;;;26.91;37.85;99667.88;4823111;29;45598;-63
2022/07/13 08:53:48;;;;;;;;;7.25;6.00;;;;;26.97;37.29;99673.56;4815615;29;45703;-63
2022/07/13 08:56:14;;;;;;;;;4.80;4.80;;;;;27.03;37.69;99669.38;4821276;29;45362;-62
2022/07/13 08:58:39;;;;;;;;;6.25;5.50;;;;;27.09;37.13;99666.94;4817010;29;45577;-63
2022/07/13 09:01:08;;;;;;;;;5.75;5.00;;;;;27.17;36.36;99670.72;4823235;29;45596;-63
2022/07/13 09:03:34;;;;;;;;;5.00;5.00;;;;;27.23;36.95;99670.09;4818356;29;45920;-63
2022/07/13 09:06:00;;;;;;;;;6.40;4.60;;;;;27.28;36.22;99668.63;4822375;29;45427;-63
2022/07/13 09:08:25;;;;;;;;;6.25;5.00;;;;;27.32;36.54;99677.28;4813568;29;45397;-63
2022/07/13 09:10:57;;;;;;;;;3.00;3.00;;;;;27.35;36.25;99667.00;4822544;29;45407;-63
2022/07/13 09:13:44;;;;;;;;;4.80;4.80;;;;;27.39;36.22;99672.97;4821866;29;47157;-63
2022/07/13 09:16:16;;;;;;;;;5.60;4.80;;;;;27.41;36.11;99660.97;4818502;29;45391;-63
2022/07/13 09:18:43;;;;;;;;;3.25;2.75;;;;;27.43;35.71;99671.66;4820088;29;45842;-62
2022/07/13 09:21:09;;;;;;;;;4.00;3.25;;;;;27.42;35.58;99664.53;4822726;29;45490;-63
2022/07/13 09:23:35;;;;;;;;;3.75;3.75;;;;;27.42;35.53;99665.38;4820630;29;45601;-63
2022/07/13 09:26:00;;;;;;;;;5.75;4.75;;;;;27.48;35.92;99660.34;4821958;29;45464;-56
2022/07/13 09:28:26;;;;;;;;;8.00;6.75;;;;;27.56;36.11;99663.97;4815994;29;45906;-55
2022/07/13 09:30:51;;;;;;;;;5.75;5.00;;;;;27.59;35.68;99660.13;4819524;29;45550;-55
2022/07/13 09:33:34;;;;;;;;;4.50;4.50;;;;;27.64;35.59;99661.38;4816071;29;46518;-55
2022/07/13 09:36:09;;;;;;;;;7.80;6.80;;;;;27.72;35.62;99652.44;4821761;29;45393;-56
2022/07/13 09:38:38;;;;;;;;;4.25;2.75;;;;;27.80;35.61;99652.53;4816148;29;45331;-55
2022/07/13 09:41:19;;;;;;;;;3.00;3.00;;;;;27.89;35.78;99654.28;4821730;29;45433;-55
2022/07/13 09:46:52;;;;;;;;;4.00;4.00;;;;;27.99;34.33;99651.44;4823599;29;45552;-56
2022/07/13 09:49:32;;;;;;;;;5.25;5.25;;;;;28.03;33.78;99650.13;4819543;29;45640;-55
2022/07/13 09:51:58;;;;;;;;;3.50;3.50;;;;;28.08;35.25;99640.50;4823246;29;45439;-56
2022/07/13 09:54:27;;;;;;;;;5.25;5.25;;;;;28.17;34.73;99651.38;4820949;29;46627;-63
2022/07/13 09:56:57;;;;;;;;;5.50;5.50;;;;;28.25;35.16;99646.06;4824096;29;45959;-63
2022/07/13 09:59:24;;;;;;;;;4.75;4.75;;;;;28.34;34.41;99634.22;4823754;29;45421;-63
2022/07/13 10:01:50;;;;;;;;;3.50;3.50;;;;;28.44;33.89;99641.22;4824130;29;45538;-63
2022/07/13 10:04:17;;;;;;;;;3.25;3.25;;;;;28.52;33.76;99643.13;4819517;29;46340;-63
2022/07/13 10:06:42;;;;;;;;;4.40;3.80;;;;;28.55;33.48;99637.38;4824646;29;45379;-65
2022/07/13 10:09:09;;;;;;;;;5.75;5.00;;;;;28.60;33.70;99643.16;4821092;29;45425;-62
2022/07/13 10:11:34;;;;;;;;;5.25;4.50;;;;;28.69;33.08;99634.03;4824782;29;45542;-62
2022/07/13 10:14:00;;;;;;;;;3.00;3.00;;;;;28.77;32.68;99633.22;4823488;29;45573;-64
2022/07/13 10:16:29;;;;;;;;;4.75;3.75;;;;;28.84;33.07;99623.41;4824542;29;45456;-64
2022/07/13 10:19:01;;;;;;;;;4.50;3.75;;;;;28.93;32.69;99632.44;4825364;29;45395;-65
2022/07/13 10:21:38;;;;;;;;;5.00;4.50;;;;;28.97;32.27;99631.09;4825108;29;45346;-63
2022/07/13 10:24:14;;;;;;;;;2.00;2.00;;;;;29.00;32.14;99625.31;4816328;29;46794;-63
2022/07/13 10:26:39;;;;;;;;;5.00;4.00;;;;;29.07;32.06;99626.34;4825125;29;45344;-63
2022/07/13 10:29:11;;;;;;;;;3.00;3.00;;;;;29.12;31.31;99619.41;4822362;29;45867;-55
2022/07/13 10:31:39;;;;;;;;;3.75;3.75;;;;;29.16;32.41;99628.91;4824672;29;45336;-56
2022/07/13 10:34:07;;;;;;;;;4.75;3.75;;;;;29.21;32.17;99616.69;4816499;29;46991;-55
2022/07/13 10:36:49;;;;;;;;;0.20;0.20;;;;;29.25;32.03;99618.06;4824636;29;45465;-56
2022/07/13 10:39:15;;;;;;;;;3.00;3.00;;;;;29.32;32.11;99609.06;4823500;29;45537;-57
2022/07/13 10:42:07;;;;;;;;;1.00;1.00;;;;;29.42;31.51;99611.66;4824730;29;45439;-56
2022/07/13 10:44:33;;;;;;;;;3.00;3.00;;;;;29.51;31.69;99616.03;4822902;29;46197;-63
2022/07/13 10:46:59;;;;;;;;;3.00;3.00;;;;;29.62;32.06;99613.00;4822863;29;45364;-64
2022/07/13 10:49:31;;;;;;;;;4.00;3.00;;;;;29.72;30.92;99604.66;4820700;29;45416;-64
2022/07/13 10:52:20;;;;;;;;;4.25;2.75;;;;;29.81;31.04;99604.47;4822956;29;45498;-64
2022/07/13 10:55:03;;;;;;;;;3.00;2.00;;;;;29.93;31.00;99594.09;4832226;29;46522;-64
2022/07/13 10:57:30;;;;;;;;;2.80;2.80;;;;;30.04;31.30;99599.16;4811156;29;45308;-64
2022/07/13 11:00:22;;;;;;;;;2.00;2.00;;;;;30.10;30.64;99590.31;4820735;29;45245;-64
2022/07/13 11:02:50;;;;;;;;;4.25;2.50;;;;;30.19;30.48;99608.31;4818395;29;45423;-63
2022/07/13 11:05:21;;;;;;;;;2.75;2.75;;;;;30.27;31.12;99601.16;4820467;29;45923;-64
2022/07/13 11:07:51;;;;;;;;;3.00;2.80;;;;;30.35;30.37;99604.66;4818993;29;45442;-64
2022/07/13 11:10:26;;;;;;;;;2.50;2.50;;;;;30.44;30.23;99610.94;4820510;29;45408;-63
2022/07/13 11:13:09;;;;;;;;;5.00;3.00;;;;;30.52;29.13;99610.91;4821506;29;45332;-64
2022/07/13 11:15:46;;;;;;;;;3.50;3.50;;;;;30.61;29.20;99590.81;4823423;29;46877;-62
2022/07/13 11:18:31;;;;;;;;;2.00;1.60;;;;;30.69;29.02;99611.69;4822050;29;45429;-63
2022/07/13 11:21:10;;;;;;;;;4.25;3.00;;;;;30.76;26.95;99604.53;4823901;29;45355;-63
2022/07/13 11:26:37;;;;;;;;;2.00;2.00;;;;;30.85;26.33;99587.94;4812498;29;45418;-62
2022/07/13 11:29:20;;;;;;;;;2.40;2.40;;;;;30.92;26.26;99604.41;4823659;29;45333;-63
2022/07/13 11:31:53;;;;;;;;;4.00;4.00;;;;;30.99;25.86;99590.94;4823884;29;45510;-63
2022/07/13 11:34:19;;;;;;;;;1.00;0.00;;;;;30.97;26.29;99596.56;4823662;29;45363;-63
2022/07/13 11:36:45;;;;;;;;;3.50;2.75;;;;;31.02;26.89;99576.94;4823976;29;45404;-63
2022/07/13 11:39:27;;;;;;;;;3.60;3.60;;;;;31.10;27.12;99575.03;4823620;29;45503;-64
2022/07/13 11:41:54;;;;;;;;;5.75;4.50;;;;;31.14;27.05;99589.16;4824115;29;45353;-64
2022/07/13 11:44:25;;;;;;;;;4.00;4.00;;;;;31.16;27.51;99587.94;4824255;29;45580;-64